Airfield :
LOGIN :

Register | Disclaimer

   EN    FR    IT 

 










Legend :    VFR   Marginal VFR   IFR   Intensive IFR   Very Intensive IFR
Visi :
Ceiling :
>= 8 km
>= 3000ft
5 to 8 km
1000 to 3000 ft
1500m to 5 km
500 to 1000 ft
800 to 1500m
200 to 500 ft
< 800m
< 200 ft
Symbols :   Thunderstorms  Fog  Heavy snow  Heavy precipitations  Wind > 20 kt
SIGMETs :     Misc.  Thunderstorms  Icing  Turbulence  Mountain Waves  Volcanic Ashes






- Airport Elevation : 290 ft
- IATA code : ACI


EGJA - Alderney

EXPIRED METARs :
  • 011920Z 20016KT 9999 -SHRA FEW017 BKN025 12/09 Q0992
  • 011850Z 21017KT 9999 FEW017 BKN025 12/09 Q0993
  • 011820Z 21017KT 9999 FEW019 BKN024 12/09 Q0993

TAF TAF EGJA
Valid from the 01 at 18:00 until the 02 at 03:00 UTC


011704Z 0118/0203 20018KT 9999 FEW020CB
BECMG 0119/0121 17020KT 8000 RA BKN010
TEMPO 0119/0200 2000 +RA BKN003 BKN010CB
BECMG 0123/0200 09025G35KT



MET'MAP, your aeronautical weather chart ! - Copyright ORBIFLY December 2007 - Disclaimer

ORBIFLY MET'MAP TEAM :

Programming & Development : Alexandra Zaïnal
Concept & original design : Baudouin d'Aumeries
Assistance for programming : Marc-Olivier Méhu
Technical & hardware support : Manuel Goepfert

Contact : metmap@orbifly.com




SOURCES & CREDITS :

   NOAA